Terminal Aerodrome Forecast
Issued by NWS

Home | Current Version | Previous Version | Text Only | Print | Product List | Glossary On
Versions: 1 2 3 4 5 6 7 8 9 10 11 12 13 14 15 16 17 18 19 20 21 22
000
FTUS42 KTBW 180800 AAA
TAFLAL
TAF AMD
KLAL 180818Z 1808/1906 08009KT P6SM FEW007 SCT015
      TEMPO 1808/1812 BKN015
     FM181400 12012KT P6SM VCSH SCT015 BKN025
     FM181700 16014G24KT P6SM VCTS SCT020CB BKN035
     FM182000 19014G24KT P6SM VCTS SCT025CB BKN050
     FM190200 20013KT P6SM VCSH SCT010 BKN035
      AMD NOT SKED TIL 181200=

USA.gov is the U.S. government's official web portal to all federal, state and local government web resources and services.